createdAt,value
2022-09-24T00:01:38.642Z,3.50
2022-09-24T00:03:43.631Z,2.70
2022-09-24T00:05:50.568Z,3.37
2022-09-24T00:07:53.436Z,2.53
2022-09-24T00:09:56.147Z,3.20
2022-09-24T00:12:00.551Z,3.30
2022-09-24T00:14:03.916Z,2.80
2022-09-24T00:16:10.613Z,2.90
2022-09-24T00:18:14.544Z,2.57
2022-09-24T00:20:17.546Z,2.97
2022-09-24T00:22:21.629Z,2.80
2022-09-24T00:24:41.974Z,2.70
2022-09-24T00:26:50.793Z,2.97
2022-09-24T00:28:53.776Z,2.80
2022-09-24T00:30:59.047Z,3.00
2022-09-24T00:33:02.211Z,2.73
2022-09-24T00:35:06.699Z,3.00
2022-09-24T00:37:09.500Z,2.87
2022-09-24T00:39:14.305Z,2.87
2022-09-24T00:41:17.081Z,3.07
2022-09-24T00:43:27.854Z,3.07
2022-09-24T00:45:32.434Z,2.90
2022-09-24T00:47:39.600Z,2.60
2022-09-24T00:49:43.923Z,3.00
2022-09-24T00:51:49.266Z,2.90
2022-09-24T00:53:55.909Z,2.73
2022-09-24T00:56:03.236Z,2.73
2022-09-24T00:58:09.208Z,2.40
2022-09-24T01:00:13.466Z,2.77
2022-09-24T01:02:16.208Z,2.70
2022-09-24T01:04:21.496Z,2.80
2022-09-24T01:06:25.530Z,2.73
2022-09-24T01:08:28.328Z,2.80
2022-09-24T01:10:51.725Z,2.50
2022-09-24T01:13:03.238Z,2.60
2022-09-24T01:15:17.931Z,2.60
2022-09-24T01:17:30.048Z,2.60
2022-09-24T01:19:59.320Z,2.80
2022-09-24T01:22:08.170Z,2.77
2022-09-24T01:24:32.261Z,2.47
2022-09-24T01:26:48.968Z,2.60
2022-09-24T01:29:06.714Z,2.93
2022-09-24T01:31:18.153Z,2.50
2022-09-24T01:33:25.708Z,2.80
2022-09-24T01:35:34.080Z,2.90
2022-09-24T01:37:41.063Z,2.80
2022-09-24T01:39:45.666Z,2.43
2022-09-24T01:41:50.078Z,2.70
2022-09-24T01:43:53.062Z,2.40
2022-09-24T01:45:59.091Z,2.60
2022-09-24T01:48:05.170Z,2.73
2022-09-24T01:50:09.644Z,2.60
2022-09-24T01:52:17.204Z,2.70
2022-09-24T01:54:24.413Z,2.83
2022-09-24T01:56:31.355Z,2.70
2022-09-24T01:58:38.565Z,2.90
2022-09-24T02:00:46.149Z,2.93
2022-09-24T02:02:56.462Z,2.80
2022-09-24T02:05:07.272Z,2.70
2022-09-24T02:07:16.099Z,2.73
2022-09-24T02:09:33.602Z,2.93
2022-09-24T02:11:38.207Z,2.70
2022-09-24T02:13:46.859Z,2.63
2022-09-24T02:15:53.429Z,2.90
2022-09-24T02:18:00.418Z,2.87
2022-09-24T02:20:10.479Z,2.70
2022-09-24T02:22:15.093Z,2.80
2022-09-24T02:24:20.139Z,2.80
2022-09-24T02:26:23.241Z,2.73
2022-09-24T02:28:27.700Z,2.80
2022-09-24T02:30:34.390Z,2.80
2022-09-24T02:32:40.693Z,3.33
2022-09-24T02:34:47.217Z,2.93
2022-09-24T02:36:53.763Z,2.70
2022-09-24T02:38:56.520Z,2.83
2022-09-24T02:40:59.590Z,2.50
2022-09-24T02:43:02.378Z,2.63
2022-09-24T02:45:05.714Z,2.80
2022-09-24T02:47:09.147Z,2.90
2022-09-24T02:49:12.420Z,3.00
2022-09-24T02:51:15.144Z,2.90
2022-09-24T02:53:19.275Z,2.93
2022-09-24T02:55:21.992Z,2.90
2022-09-24T02:57:24.824Z,3.10
2022-09-24T02:59:27.731Z,2.63
2022-09-24T03:01:31.664Z,2.50
2022-09-24T03:03:34.506Z,2.70
2022-09-24T03:05:37.180Z,2.93
2022-09-24T03:07:40.043Z,2.53
2022-09-24T03:09:44.223Z,3.00
2022-09-24T03:11:47.451Z,3.00
2022-09-24T03:13:51.178Z,3.00
2022-09-24T03:15:54.523Z,3.23
2022-09-24T03:17:57.717Z,2.90
2022-09-24T03:20:00.429Z,3.07
2022-09-24T03:22:03.305Z,2.80
2022-09-24T03:24:06.506Z,3.30
2022-09-24T03:26:11.346Z,2.80
2022-09-24T03:28:14.087Z,3.07
2022-09-24T03:30:34.773Z,3.50
2022-09-24T03:32:39.097Z,3.40
2022-09-24T03:34:41.844Z,3.30
2022-09-24T03:36:44.507Z,3.60
2022-09-24T03:38:48.519Z,3.77
2022-09-24T03:40:54.059Z,3.67
2022-09-24T03:42:58.281Z,3.70
2022-09-24T03:45:00.987Z,3.90
2022-09-24T03:47:04.038Z,3.60
2022-09-24T03:49:06.732Z,3.80
2022-09-24T03:51:11.043Z,3.77
2022-09-24T03:53:14.252Z,3.43
2022-09-24T03:55:17.167Z,3.77
2022-09-24T03:57:19.902Z,3.77
2022-09-24T03:59:24.152Z,3.30
2022-09-24T04:01:27.538Z,3.50
2022-09-24T04:03:30.439Z,3.47
2022-09-24T04:05:33.530Z,3.33
2022-09-24T04:07:36.269Z,3.80
2022-09-24T04:09:38.981Z,3.20
2022-09-24T04:11:42.801Z,3.00
2022-09-24T04:13:45.796Z,7.33
2022-09-24T04:15:50.295Z,10.57
2022-09-24T04:17:53.880Z,6.63
2022-09-24T04:19:57.037Z,4.90
2022-09-24T04:21:59.847Z,4.70
2022-09-24T04:24:02.912Z,4.27
2022-09-24T04:26:05.654Z,4.20
2022-09-24T04:28:10.702Z,4.10
2022-09-24T04:30:15.394Z,3.50
2022-09-24T04:32:19.428Z,3.80
2022-09-24T04:34:22.198Z,3.63
2022-09-24T04:36:25.061Z,3.30
2022-09-24T04:38:27.773Z,3.50
2022-09-24T04:40:30.968Z,3.23
2022-09-24T04:42:34.029Z,3.70
2022-09-24T04:44:36.768Z,3.53
2022-09-24T04:46:39.979Z,3.30
2022-09-24T04:48:44.715Z,3.50
2022-09-24T04:50:47.887Z,3.90
2022-09-24T04:52:50.698Z,3.50
2022-09-24T04:54:54.643Z,3.83
2022-09-24T04:56:57.431Z,3.40
2022-09-24T04:59:00.338Z,3.90
2022-09-24T05:01:05.014Z,3.87
2022-09-24T05:03:07.966Z,3.43
2022-09-24T05:05:13.172Z,3.50
2022-09-24T05:07:15.993Z,3.40
2022-09-24T05:09:18.741Z,3.70
2022-09-24T05:11:23.745Z,3.80
2022-09-24T05:13:26.485Z,4.27
2022-09-24T05:15:29.318Z,4.60
2022-09-24T05:17:32.551Z,4.70
2022-09-24T05:19:35.404Z,4.20
2022-09-24T05:21:39.509Z,4.40
2022-09-24T05:23:42.185Z,3.87
2022-09-24T05:25:58.971Z,4.00
2022-09-24T05:28:11.020Z,3.97
2022-09-24T05:30:14.581Z,3.83
2022-09-24T05:32:20.178Z,3.70
2022-09-24T05:34:23.005Z,3.90
2022-09-24T05:36:26.928Z,4.33
2022-09-24T05:38:32.944Z,4.10
2022-09-24T05:40:50.735Z,4.13
2022-09-24T05:42:53.511Z,4.70
2022-09-24T05:44:56.257Z,4.53
2022-09-24T05:46:59.847Z,3.70
2022-09-24T05:49:02.705Z,3.97
2022-09-24T05:51:06.083Z,4.33
2022-09-24T05:53:09.352Z,4.60
2022-09-24T05:55:13.507Z,4.70
2022-09-24T05:57:16.508Z,4.23
2022-09-24T05:59:19.383Z,4.00
2022-09-24T06:01:22.237Z,4.10
2022-09-24T06:03:25.087Z,4.03
2022-09-24T06:05:28.060Z,3.87
2022-09-24T06:07:31.103Z,3.70
2022-09-24T06:09:33.817Z,3.67
2022-09-24T06:11:40.894Z,4.37
2022-09-24T06:13:44.014Z,4.80
2022-09-24T06:15:47.082Z,5.47
2022-09-24T06:17:50.117Z,6.50
2022-09-24T06:19:52.853Z,7.00
2022-09-24T06:21:57.072Z,5.83
2022-09-24T06:23:59.970Z,5.70
2022-09-24T06:26:03.170Z,4.90
2022-09-24T06:28:07.307Z,4.57
2022-09-24T06:30:11.890Z,4.33
2022-09-24T06:32:14.614Z,4.47
2022-09-24T06:34:17.464Z,4.33
2022-09-24T06:36:20.422Z,4.47
2022-09-24T06:38:23.315Z,4.70
2022-09-24T06:40:26.722Z,4.13
2022-09-24T06:42:30.959Z,3.70
2022-09-24T06:44:35.507Z,4.00
2022-09-24T06:46:38.252Z,3.90
2022-09-24T06:48:41.102Z,4.53
2022-09-24T06:50:45.672Z,4.50
2022-09-24T06:52:48.580Z,3.87
2022-09-24T06:54:51.358Z,4.20
2022-09-24T06:56:54.075Z,4.07
2022-09-24T06:58:56.834Z,4.07
2022-09-24T07:01:02.831Z,4.30
2022-09-24T07:03:06.103Z,4.27
2022-09-24T07:05:10.438Z,4.20
2022-09-24T07:07:32.924Z,4.30
2022-09-24T07:09:36.288Z,4.50
2022-09-24T07:11:39.613Z,4.57
2022-09-24T07:13:42.402Z,4.70
2022-09-24T07:15:46.275Z,4.67
2022-09-24T07:17:50.936Z,4.77
2022-09-24T07:19:53.965Z,5.50
2022-09-24T07:21:56.750Z,5.50
2022-09-24T07:23:59.465Z,6.33
2022-09-24T07:26:02.282Z,5.80
2022-09-24T07:28:08.553Z,6.07
2022-09-24T07:30:12.713Z,6.10
2022-09-24T07:32:17.646Z,6.37
2022-09-24T07:34:22.138Z,6.33
2022-09-24T07:36:24.885Z,7.00
2022-09-24T07:38:27.634Z,6.60
2022-09-24T07:40:31.563Z,6.50
2022-09-24T07:42:34.375Z,7.17
2022-09-24T07:44:37.999Z,6.50
2022-09-24T07:46:40.830Z,5.77
2022-09-24T07:48:43.709Z,6.03
2022-09-24T07:50:47.742Z,5.77
2022-09-24T07:52:51.325Z,4.90
2022-09-24T07:54:54.250Z,5.40
2022-09-24T07:56:57.050Z,4.90
2022-09-24T07:58:59.877Z,5.70
2022-09-24T08:01:03.154Z,5.03
2022-09-24T08:03:06.279Z,5.20
2022-09-24T08:05:09.913Z,4.50
2022-09-24T08:07:15.155Z,5.30
2022-09-24T08:09:18.055Z,4.90
2022-09-24T08:11:22.576Z,4.40
2022-09-24T08:13:27.865Z,4.37
2022-09-24T08:15:30.968Z,4.80
2022-09-24T08:17:33.640Z,4.50
2022-09-24T08:19:36.757Z,4.80
2022-09-24T08:21:40.292Z,5.07
2022-09-24T08:23:44.896Z,5.50
2022-09-24T08:25:47.666Z,4.70
2022-09-24T08:27:50.378Z,5.03
2022-09-24T08:29:53.568Z,5.00
2022-09-24T08:31:56.431Z,5.07
2022-09-24T08:33:59.156Z,5.03
2022-09-24T08:36:02.382Z,5.23
2022-09-24T08:38:05.239Z,5.00
2022-09-24T08:40:17.220Z,7.10
2022-09-24T08:42:31.795Z,6.67
2022-09-24T08:44:58.178Z,5.03
2022-09-24T08:47:21.552Z,5.53
2022-09-24T08:49:27.692Z,4.97
2022-09-24T08:51:37.406Z,5.00
2022-09-24T08:53:48.759Z,5.30
2022-09-24T08:55:55.088Z,5.20
2022-09-24T08:58:05.837Z,4.80
2022-09-24T09:00:15.171Z,4.53
2022-09-24T09:02:40.266Z,5.57
2022-09-24T09:04:57.990Z,4.87
2022-09-24T09:07:10.691Z,5.10
2022-09-24T09:09:18.204Z,4.70
2022-09-24T09:11:29.631Z,4.90
2022-09-24T09:13:37.130Z,4.63
2022-09-24T09:15:43.447Z,4.80
2022-09-24T09:17:50.969Z,4.57
2022-09-24T09:19:57.212Z,4.63
2022-09-24T09:22:03.998Z,4.40
2022-09-24T09:24:13.878Z,4.97
2022-09-24T09:26:18.298Z,4.97
2022-09-24T09:28:22.595Z,4.80
2022-09-24T09:30:25.514Z,4.53
2022-09-24T09:32:48.907Z,4.90
2022-09-24T09:34:59.978Z,4.53
2022-09-24T09:37:15.519Z,4.20
2022-09-24T09:39:29.826Z,4.77
2022-09-24T09:41:41.313Z,4.70
2022-09-24T09:43:45.360Z,4.43
2022-09-24T09:46:00.011Z,4.50
2022-09-24T09:48:03.600Z,4.33
2022-09-24T09:50:14.909Z,4.50
2022-09-24T09:52:21.793Z,4.50
2022-09-24T09:54:37.190Z,4.10
2022-09-24T09:56:46.691Z,4.13
2022-09-24T09:58:55.697Z,4.00
2022-09-24T10:01:07.450Z,4.20
2022-09-24T10:03:23.144Z,4.13
2022-09-24T10:05:28.722Z,3.87
2022-09-24T10:07:32.531Z,5.00
2022-09-24T10:09:36.415Z,4.13
2022-09-24T10:11:39.141Z,3.70
2022-09-24T10:13:41.898Z,3.83
2022-09-24T10:15:53.453Z,3.43
2022-09-24T10:17:56.305Z,3.50
2022-09-24T10:20:02.227Z,3.67
2022-09-24T10:22:10.761Z,4.10
2022-09-24T10:24:18.168Z,3.40
2022-09-24T10:26:20.969Z,3.13
2022-09-24T10:28:42.427Z,4.30
2022-09-24T10:30:57.396Z,3.20
2022-09-24T10:33:02.212Z,3.17
2022-09-24T10:35:21.308Z,2.90
2022-09-24T10:37:24.129Z,3.27
2022-09-24T10:39:29.368Z,3.53
2022-09-24T10:41:33.127Z,2.90
2022-09-24T10:43:35.853Z,3.10
2022-09-24T10:45:58.138Z,3.83
2022-09-24T10:48:09.203Z,3.47
2022-09-24T10:50:30.642Z,3.63
2022-09-24T10:52:47.476Z,3.20
2022-09-24T10:55:03.960Z,3.10
2022-09-24T10:57:18.101Z,3.30
2022-09-24T10:59:30.720Z,3.40
2022-09-24T11:01:43.702Z,3.60
2022-09-24T11:04:20.217Z,3.13
2022-09-24T11:06:39.517Z,2.83
2022-09-24T11:08:58.843Z,3.10
2022-09-24T11:11:16.020Z,3.53
2022-09-24T11:13:27.251Z,3.30
2022-09-24T11:15:45.724Z,3.37
2022-09-24T11:18:01.604Z,3.20
2022-09-24T11:20:21.261Z,3.50
2022-09-24T11:22:34.704Z,3.50
2022-09-24T11:25:05.168Z,2.93
2022-09-24T11:27:30.196Z,3.40
2022-09-24T11:29:49.745Z,2.90
2022-09-24T11:32:06.894Z,3.00
2022-09-24T11:34:27.376Z,2.60
2022-09-24T11:36:44.464Z,3.00
2022-09-24T11:39:05.972Z,3.20
2022-09-24T11:41:24.115Z,2.83
2022-09-24T11:43:54.972Z,3.00
2022-09-24T11:46:12.950Z,3.10
2022-09-24T11:48:38.376Z,3.10
2022-09-24T11:50:54.959Z,3.13
2022-09-24T11:53:06.921Z,2.80
2022-09-24T11:55:16.403Z,2.67
2022-09-24T11:57:25.541Z,2.87
2022-09-24T11:59:37.937Z,3.07
2022-09-24T12:01:47.207Z,2.70
2022-09-24T12:03:58.314Z,2.80
2022-09-24T12:06:06.933Z,2.87
2022-09-24T12:08:16.445Z,3.10
2022-09-24T12:10:36.021Z,3.00
2022-09-24T12:12:43.432Z,2.83
2022-09-24T12:14:52.453Z,3.13
2022-09-24T12:17:01.873Z,3.20
2022-09-24T12:19:10.197Z,2.93
2022-09-24T12:21:16.505Z,2.70
2022-09-24T12:23:27.818Z,3.13
2022-09-24T12:25:39.334Z,3.10
2022-09-24T12:27:46.835Z,3.60
2022-09-24T12:30:14.323Z,3.27
2022-09-24T12:32:41.856Z,3.10
2022-09-24T12:34:55.604Z,3.37
2022-09-24T12:37:02.151Z,3.80
2022-09-24T12:39:09.540Z,3.90
2022-09-24T12:41:29.882Z,3.90
2022-09-24T12:43:39.352Z,3.90
2022-09-24T12:45:42.527Z,3.87
2022-09-24T12:47:49.001Z,4.10
2022-09-24T12:49:57.225Z,4.77
2022-09-24T12:52:02.549Z,4.60
2022-09-24T12:54:21.777Z,5.20
2022-09-24T12:56:27.525Z,5.30
2022-09-24T12:58:36.846Z,5.43
2022-09-24T13:00:42.260Z,5.80
2022-09-24T13:02:47.107Z,5.50
2022-09-24T13:05:03.841Z,5.60
2022-09-24T13:07:39.013Z,5.37
2022-09-24T13:09:44.251Z,4.93
2022-09-24T13:11:47.510Z,5.90
2022-09-24T13:14:19.073Z,6.13
2022-09-24T13:16:22.840Z,6.27
2022-09-24T13:18:25.960Z,5.60
2022-09-24T13:20:28.761Z,5.93
2022-09-24T13:22:33.534Z,5.43
2022-09-24T13:24:50.738Z,5.50
2022-09-24T13:26:53.441Z,5.87
2022-09-24T13:28:58.678Z,6.03
2022-09-24T13:31:11.551Z,5.87
2022-09-24T13:33:24.060Z,5.60
2022-09-24T13:35:30.825Z,5.97
2022-09-24T13:37:39.352Z,5.53
2022-09-24T13:39:46.306Z,5.30
2022-09-24T13:41:58.310Z,5.17
2022-09-24T13:44:05.153Z,5.43
2022-09-24T13:46:16.845Z,5.87
2022-09-24T13:48:29.707Z,5.20
2022-09-24T13:50:36.470Z,5.37
2022-09-24T13:52:43.571Z,5.13
2022-09-24T13:54:52.992Z,5.23
2022-09-24T13:57:08.034Z,5.13
2022-09-24T13:59:13.081Z,5.30
2022-09-24T14:01:19.516Z,6.27
2022-09-24T14:03:26.477Z,5.90
2022-09-24T14:05:31.252Z,5.37
2022-09-24T14:07:34.119Z,5.70
2022-09-24T14:09:38.252Z,5.67
2022-09-24T14:11:50.334Z,6.10
2022-09-24T14:13:56.294Z,5.20
2022-09-24T14:16:02.629Z,5.50
2022-09-24T14:18:10.621Z,5.50
2022-09-24T14:20:16.659Z,5.90
2022-09-24T14:22:23.873Z,6.00
2022-09-24T14:24:30.422Z,5.57
2022-09-24T14:26:36.717Z,5.83
2022-09-24T14:28:39.627Z,6.10
2022-09-24T14:30:52.264Z,5.63
2022-09-24T14:32:57.167Z,5.57
2022-09-24T14:35:02.269Z,5.83
2022-09-24T14:37:11.480Z,5.70
2022-09-24T14:39:14.737Z,5.60
2022-09-24T14:41:21.021Z,5.27
2022-09-24T14:43:28.876Z,5.87
2022-09-24T14:45:36.112Z,5.13
2022-09-24T14:47:40.302Z,5.00
2022-09-24T14:49:45.833Z,5.93
2022-09-24T14:51:56.987Z,5.53
2022-09-24T14:54:02.375Z,5.10
2022-09-24T14:56:21.239Z,5.33
2022-09-24T14:58:36.418Z,5.03
2022-09-24T15:00:49.180Z,4.93
2022-09-24T15:02:58.554Z,4.97
2022-09-24T15:05:06.865Z,5.47
2022-09-24T15:07:16.989Z,6.13
2022-09-24T15:09:25.765Z,5.63
2022-09-24T15:11:31.368Z,5.23
2022-09-24T15:13:36.139Z,5.87
2022-09-24T15:15:39.973Z,5.60
2022-09-24T15:17:42.821Z,5.50
2022-09-24T15:19:47.598Z,5.40
2022-09-24T15:21:52.525Z,5.70
2022-09-24T15:23:56.876Z,5.67
2022-09-24T15:25:59.707Z,5.77
2022-09-24T15:28:02.766Z,5.90
2022-09-24T15:30:08.184Z,5.30
2022-09-24T15:32:17.017Z,5.77
2022-09-24T15:34:20.544Z,5.57
2022-09-24T15:36:25.191Z,5.50
2022-09-24T15:38:29.347Z,5.70
2022-09-24T15:40:33.840Z,5.73
2022-09-24T15:42:36.667Z,7.67
2022-09-24T15:44:39.934Z,6.97
2022-09-24T15:46:43.040Z,7.33
2022-09-24T15:48:46.296Z,7.70
2022-09-24T15:50:50.427Z,8.10
2022-09-24T15:52:59.046Z,8.47
2022-09-24T15:55:03.680Z,8.47
2022-09-24T15:57:06.484Z,8.87
2022-09-24T15:59:13.828Z,8.77
2022-09-24T16:01:19.147Z,9.07
2022-09-24T16:03:25.905Z,9.10
2022-09-24T16:05:28.766Z,8.83
2022-09-24T16:07:31.616Z,8.67
2022-09-24T16:09:35.873Z,8.60
2022-09-24T16:11:38.723Z,9.13
2022-09-24T16:13:41.608Z,8.80
2022-09-24T16:15:44.551Z,8.33
2022-09-24T16:17:49.880Z,8.67
2022-09-24T16:19:52.698Z,9.03
2022-09-24T16:21:55.534Z,9.60
2022-09-24T16:23:58.566Z,8.93
2022-09-24T16:26:03.005Z,9.93
2022-09-24T16:28:05.855Z,8.67
2022-09-24T16:30:09.655Z,9.33
2022-09-24T16:32:13.934Z,9.03
2022-09-24T16:34:18.643Z,9.40
2022-09-24T16:36:23.804Z,10.03
2022-09-24T16:38:28.725Z,9.10
2022-09-24T16:40:34.762Z,9.30
2022-09-24T16:42:38.914Z,9.63
2022-09-24T16:44:41.782Z,9.90
2022-09-24T16:46:45.447Z,10.40
2022-09-24T16:48:50.176Z,9.57
2022-09-24T16:50:53.021Z,9.37
2022-09-24T16:52:55.977Z,15.00
2022-09-24T16:54:59.236Z,11.17
2022-09-24T16:57:03.396Z,10.00
2022-09-24T16:59:07.424Z,9.27
2022-09-24T17:01:12.357Z,9.80
2022-09-24T17:03:15.359Z,8.80
2022-09-24T17:05:18.397Z,9.40
2022-09-24T17:07:21.146Z,9.53
2022-09-24T17:09:41.388Z,8.77
2022-09-24T17:11:46.692Z,8.17
2022-09-24T17:13:50.243Z,9.93
2022-09-24T17:15:54.435Z,9.00
2022-09-24T17:17:59.398Z,7.87
2022-09-24T17:20:02.481Z,8.00
2022-09-24T17:22:05.178Z,7.97
2022-09-24T17:24:09.068Z,7.73
2022-09-24T17:26:14.895Z,8.03
2022-09-24T17:28:17.596Z,7.53
2022-09-24T17:30:21.440Z,7.90
2022-09-24T17:32:25.787Z,8.27
2022-09-24T17:34:28.581Z,8.27
2022-09-24T17:36:33.012Z,8.47
2022-09-24T17:38:36.968Z,8.10
2022-09-24T17:40:40.021Z,8.60
2022-09-24T17:42:47.133Z,9.53
2022-09-24T17:44:49.866Z,9.10
2022-09-24T17:46:52.689Z,10.47
2022-09-24T17:48:58.494Z,9.17
2022-09-24T17:51:03.473Z,8.70
2022-09-24T17:53:06.249Z,8.37
2022-09-24T17:55:09.507Z,9.53
2022-09-24T17:57:12.272Z,9.47
2022-09-24T17:59:15.986Z,8.37
2022-09-24T18:01:21.229Z,11.73
2022-09-24T18:03:24.067Z,12.70
2022-09-24T18:05:28.230Z,12.80
2022-09-24T18:07:31.051Z,11.20
2022-09-24T18:09:33.873Z,12.17
2022-09-24T18:11:41.092Z,13.03
2022-09-24T18:13:43.929Z,14.17
2022-09-24T18:15:47.433Z,14.00
2022-09-24T18:17:50.317Z,12.60
2022-09-24T18:19:53.138Z,12.23
2022-09-24T18:21:59.222Z,14.23
2022-09-24T18:24:02.805Z,14.87
2022-09-24T18:26:11.885Z,12.87
2022-09-24T18:28:18.610Z,13.13
2022-09-24T18:30:22.139Z,13.87
2022-09-24T18:32:26.310Z,12.17
2022-09-24T18:34:29.874Z,11.67
2022-09-24T18:36:33.913Z,13.97
2022-09-24T18:38:38.172Z,11.10
2022-09-24T18:40:41.039Z,13.40
2022-09-24T18:42:43.911Z,12.50
2022-09-24T18:44:47.547Z,12.13
2022-09-24T18:46:50.506Z,10.07
2022-09-24T18:48:55.685Z,9.47
2022-09-24T18:50:58.817Z,9.20
2022-09-24T18:53:01.512Z,9.53
2022-09-24T18:55:06.856Z,9.33
2022-09-24T18:57:09.668Z,9.53
2022-09-24T18:59:14.397Z,9.70
2022-09-24T19:01:18.972Z,10.20
2022-09-24T19:03:23.457Z,10.53
2022-09-24T19:05:26.298Z,10.17
2022-09-24T19:07:30.529Z,9.83
2022-09-24T19:09:33.352Z,9.37
2022-09-24T19:11:38.000Z,10.03
2022-09-24T19:13:42.373Z,10.33
2022-09-24T19:15:45.271Z,10.37
2022-09-24T19:17:48.970Z,11.07
2022-09-24T19:19:52.665Z,10.27
2022-09-24T19:21:59.392Z,11.23
2022-09-24T19:24:02.724Z,9.97
2022-09-24T19:26:06.330Z,10.30
2022-09-24T19:28:12.972Z,10.70
2022-09-24T19:30:17.098Z,11.17
2022-09-24T19:32:19.884Z,11.30
2022-09-24T19:34:22.689Z,10.73
2022-09-24T19:36:25.837Z,11.77
2022-09-24T19:38:31.330Z,10.37
2022-09-24T19:40:34.582Z,10.50
2022-09-24T19:42:40.354Z,10.37
2022-09-24T19:44:44.664Z,10.47
2022-09-24T19:46:47.566Z,10.40
2022-09-24T19:48:51.338Z,11.03
2022-09-24T19:50:55.168Z,11.20
2022-09-24T19:52:58.008Z,10.57
2022-09-24T19:55:00.856Z,11.80
2022-09-24T19:57:03.631Z,10.57
2022-09-24T19:59:08.696Z,10.40
2022-09-24T20:01:17.033Z,11.60
2022-09-24T20:03:25.983Z,11.20
2022-09-24T20:05:28.758Z,10.77
2022-09-24T20:07:31.498Z,10.97
2022-09-24T20:09:34.308Z,11.23
2022-09-24T20:11:37.262Z,12.23
2022-09-24T20:13:42.946Z,11.83
2022-09-24T20:15:45.945Z,12.90
2022-09-24T20:17:53.665Z,16.50
2022-09-24T20:19:56.473Z,19.97
2022-09-24T20:21:59.293Z,11.90
2022-09-24T20:24:04.663Z,11.77
2022-09-24T20:26:25.570Z,13.30
2022-09-24T20:28:33.654Z,12.67
2022-09-24T20:30:37.933Z,10.93
2022-09-24T20:32:42.449Z,12.47
2022-09-24T20:34:46.653Z,16.57
2022-09-24T20:36:49.463Z,11.93
2022-09-24T20:38:52.602Z,12.70
2022-09-24T20:40:59.607Z,12.27
2022-09-24T20:43:09.136Z,11.97
2022-09-24T20:45:11.987Z,11.17
2022-09-24T20:47:14.671Z,12.87
2022-09-24T20:49:22.315Z,12.00
2022-09-24T20:51:28.184Z,12.40
2022-09-24T20:53:30.916Z,11.53
2022-09-24T20:55:33.627Z,13.00
2022-09-24T20:57:36.457Z,11.53
2022-09-24T20:59:39.780Z,11.70
2022-09-24T21:01:43.293Z,11.43
2022-09-24T21:03:47.816Z,10.97
2022-09-24T21:05:50.768Z,11.57
2022-09-24T21:07:55.178Z,11.37
2022-09-24T21:09:57.934Z,11.70
2022-09-24T21:12:01.432Z,12.00
2022-09-24T21:14:04.346Z,11.63
2022-09-24T21:16:07.922Z,12.10
2022-09-24T21:18:22.757Z,11.67
2022-09-24T21:20:26.998Z,13.53
2022-09-24T21:22:30.156Z,13.43
2022-09-24T21:24:34.815Z,13.57
2022-09-24T21:26:39.262Z,13.27
2022-09-24T21:28:43.467Z,12.57
2022-09-24T21:30:57.703Z,12.40
2022-09-24T21:33:00.520Z,13.97
2022-09-24T21:35:03.266Z,13.37
2022-09-24T21:37:06.045Z,13.20
2022-09-24T21:39:13.560Z,12.90
2022-09-24T21:41:17.926Z,14.80
2022-09-24T21:43:25.759Z,14.23
2022-09-24T21:45:30.119Z,15.53
2022-09-24T21:47:32.867Z,15.83
2022-09-24T21:49:38.830Z,15.43
2022-09-24T21:51:41.948Z,14.00
2022-09-24T21:53:44.838Z,14.60
2022-09-24T21:55:48.982Z,13.60
2022-09-24T21:57:53.071Z,13.33
2022-09-24T22:00:04.021Z,13.27
2022-09-24T22:02:07.101Z,13.43
2022-09-24T22:04:09.925Z,12.60
2022-09-24T22:06:13.095Z,11.60
2022-09-24T22:08:16.795Z,12.73
2022-09-24T22:10:19.544Z,12.17
2022-09-24T22:12:22.574Z,12.10
2022-09-24T22:14:28.632Z,12.50
2022-09-24T22:16:32.696Z,11.53
2022-09-24T22:18:37.032Z,11.57
2022-09-24T22:20:44.477Z,12.47
2022-09-24T22:22:47.189Z,11.43
2022-09-24T22:24:50.026Z,12.83
2022-09-24T22:26:54.059Z,12.10
2022-09-24T22:28:56.899Z,12.37
2022-09-24T22:31:04.826Z,12.37
2022-09-24T22:33:07.667Z,11.83
2022-09-24T22:35:29.663Z,12.00
2022-09-24T22:37:32.846Z,12.60
2022-09-24T22:39:36.364Z,12.23
2022-09-24T22:41:42.855Z,11.77
2022-09-24T22:43:46.003Z,11.77
2022-09-24T22:45:48.944Z,11.87
2022-09-24T22:47:55.152Z,13.03
2022-09-24T22:49:57.913Z,12.57
2022-09-24T22:52:00.803Z,12.30
2022-09-24T22:54:03.692Z,12.70
2022-09-24T22:56:09.493Z,13.30
2022-09-24T22:58:12.224Z,12.07
2022-09-24T23:00:18.035Z,11.73
2022-09-24T23:02:22.110Z,11.47
2022-09-24T23:04:26.249Z,11.97
2022-09-24T23:06:30.388Z,11.97
2022-09-24T23:08:34.131Z,12.30
2022-09-24T23:10:36.860Z,12.30
2022-09-24T23:12:39.572Z,12.00
2022-09-24T23:14:42.313Z,11.97
2022-09-24T23:16:46.136Z,11.90
2022-09-24T23:18:52.045Z,11.80
2022-09-24T23:20:57.531Z,12.47
2022-09-24T23:23:00.326Z,11.83
2022-09-24T23:25:03.233Z,11.80
2022-09-24T23:27:06.031Z,12.23
2022-09-24T23:29:09.322Z,12.07
2022-09-24T23:31:14.783Z,12.10
2022-09-24T23:33:17.636Z,11.70
2022-09-24T23:35:21.323Z,11.40
2022-09-24T23:37:25.418Z,11.53
2022-09-24T23:39:28.510Z,11.03
2022-09-24T23:41:31.859Z,11.47
2022-09-24T23:43:35.404Z,11.23
2022-09-24T23:45:38.174Z,11.30
2022-09-24T23:47:40.935Z,11.53
2022-09-24T23:49:43.742Z,11.67
2022-09-24T23:51:46.449Z,12.37
2022-09-24T23:53:50.525Z,13.30
2022-09-24T23:55:54.951Z,12.60
2022-09-24T23:57:57.756Z,11.60
